Quality of Life Run — Results

Billings, Montana, United States

1st Place

Matthew Wurnig

2-Mile

11:14

2nd Place

Tony Scharf

2-Mile

11:46

3rd Place

Chase Comes At Night

2-Mile

12:16

# Bib Name Gender Gender Rank Age Group AG Rank Finish Time Pace
51 469 Roger Daniel Male M 35-39 3 18:13 9:06 /mi
52 306 Stevee Quast Female F 35-39 5 18:19 9:09 /mi
53 439 Jeannie Hayes Female F 45-49 3 18:27 9:13 /mi
54 258 Carrie Beth McNeese Female F 35-39 6 18:27 9:13 /mi
55 49 Becky Bolt Female F 20-24 2 18:29 9:14 /mi
56 345 Brandon Snedigar Male M 14-19 4 18:34 9:17 /mi
57 356 Sarah Stokoe Female F 25-29 4 18:34 9:17 /mi
58 214 Erin Lafavor Female F 25-29 5 18:35 9:17 /mi
59 154 Claudine Hash Female F 40-44 6 18:42 9:20 /mi
60 173 Kelly Hoover Male M 55-59 1 18:43 9:21 /mi
61 162 Teresa Heiser Female F 45-49 4 18:45 9:22 /mi
62 344 L. Smith Female 18:53 9:26 /mi
63 455 John Summers Male M 40-44 1 19:10 9:35 /mi
64 435 J. Braten Male M 11-13 6 19:14 9:37 /mi
65 436 Samantha Downey Female F 25-29 6 19:14 9:37 /mi
66 452 Dan Hogan Male M 45-49 2 19:18 9:39 /mi
67 336 Jessa Shovar Female F 20-24 3 19:24 9:42 /mi
68 132 Darwin George Male M 55-59 2 19:25 9:42 /mi
69 213 Ken Kunz II Male M 40-44 2 19:27 9:43 /mi
70 134 Terri Gillespie Female F 45-49 5 19:29 9:44 /mi
71 366 Eric Sutphin Male M 50-54 2 19:31 9:45 /mi
72 400 Erica White Female F 11-13 4 19:33 9:46 /mi
73 93 Tena Dewey Female F 45-49 6 19:35 9:47 /mi
74 43 Haley Berkram Female F 20-24 4 19:36 9:47 /mi
75 150 Dina Harmon Female F 40-44 7 19:41 9:50 /mi
76 185 Hannah Johnson Female F 14-19 2 20:05 10:02 /mi
77 155 C. Hash Male 20:06 10:03 /mi
78 419 G. Zimmer Male 20:06 10:03 /mi
79 92 W. Dede Male 20:15 10:07 /mi
80 22 Paul Barta Male M 60-64 3 20:21 10:10 /mi
81 475 Glenda Brauneis Female F 40-44 8 20:31 10:15 /mi
82 108 R. Doyle Male M 11-13 7 20:32 10:16 /mi
83 304 E. Quast Male 20:34 10:17 /mi
84 203 Chandel Kleinsasser Female F 20-24 5 20:35 10:17 /mi
85 375 Baylee Tryan Crook Female F 25-29 7 20:37 10:18 /mi
86 406 Patty Wiens Female F 60-64 2 20:57 10:28 /mi
87 450 Melissa Wood Female F 40-44 9 21:07 10:33 /mi
88 244 Chris Mangen Male M 60-64 4 21:17 10:38 /mi
89 420 Jordyn Zimmer Female F 11-13 5 21:45 10:52 /mi
90 53 David Boone Male M 30-34 4 21:54 10:56 /mi
91 381 Ronda Vukasin Female F 45-49 7 22:00 11:00 /mi
92 1 P. Aaby Female 22:03 11:01 /mi
93 9 Gina Anton Female F 45-49 8 22:03 11:01 /mi
94 221 Tempe Lemon Female F 70-99 1 22:12 11:05 /mi
95 349 I. Sperry Male 22:20 11:09 /mi
96 343 Jennifer Smith Female F 40-44 10 22:20 11:10 /mi
97 114 Sheldon Eaton Male M 55-59 3 22:24 11:11 /mi
98 115 Vicki Eaton Female F 55-59 2 22:25 11:12 /mi
99 86 M. Davis Female 22:34 11:17 /mi
100 87 Michelle Davis Female F 30-34 1 22:34 11:17 /mi

Showing 51–100 of 241 results